Time;durP1;ratioP1;P1;durP2;ratioP2;P2;SDS_P1;SDS_P2;PMS_P1;PMS_P2;Temp;Humidity;BMP_temperature;BMP_pressure;BME280_temperature;BME280_humidity;BME280_pressure;Samples;Min_cycle;Max_cycle;Signal;HPM_P1;HPM_P2
2021/10/03 00:01:36;;;;;;;1.20;0.80;;;17.80;99.90;;;;;;5056445;28;20717;-52
2021/10/03 00:04:14;;;;;;;1.00;0.70;;;17.90;99.90;;;;;;5056236;28;20851;-52
2021/10/03 00:06:45;;;;;;;1.10;0.80;;;17.90;99.90;;;;;;5059709;28;20803;-55
2021/10/03 00:09:14;;;;;;;1.00;0.75;;;17.90;99.90;;;;;;5074603;28;20508;-55
2021/10/03 00:11:56;;;;;;;1.00;0.70;;;17.80;99.90;;;;;;5074229;28;20438;-55
2021/10/03 00:14:29;;;;;;;1.20;0.80;;;17.80;99.90;;;;;;5072319;28;20418;-55
2021/10/03 00:17:15;;;;;;;1.20;0.80;;;17.80;99.90;;;;;;5073154;28;20424;-55
2021/10/03 00:19:48;;;;;;;1.00;0.80;;;17.80;99.90;;;;;;5073969;28;20907;-52
2021/10/03 00:22:19;;;;;;;1.40;0.85;;;17.90;99.90;;;;;;5073534;28;20767;-53
2021/10/03 00:24:51;;;;;;;1.00;0.80;;;18.00;99.90;;;;;;5072309;28;20435;-56
2021/10/03 00:27:20;;;;;;;1.30;0.90;;;18.10;99.90;;;;;;5075541;28;20481;-56
2021/10/03 00:29:52;;;;;;;1.60;0.80;;;18.10;99.90;;;;;;5075441;28;20431;-55
2021/10/03 00:35:03;;;;;;;1.10;0.80;;;18.10;99.90;;;;;;5075704;28;20423;-55
2021/10/03 00:37:39;;;;;;;1.70;0.80;;;18.10;99.90;;;;;;5072068;28;20428;-55
2021/10/03 00:40:18;;;;;;;1.20;0.80;;;18.00;99.90;;;;;;5073064;28;20423;-57
2021/10/03 00:42:46;;;;;;;1.00;0.80;;;17.90;99.90;;;;;;5073605;28;20835;-57
2021/10/03 00:45:21;;;;;;;1.80;0.90;;;17.80;99.90;;;;;;5074751;28;20526;-57
2021/10/03 00:47:51;;;;;;;1.10;0.80;;;17.70;99.90;;;;;;5074904;28;20862;-51
2021/10/03 00:50:21;;;;;;;1.02;0.80;;;17.60;99.90;;;;;;5075495;28;20497;-54
2021/10/03 00:52:53;;;;;;;1.10;0.80;;;17.50;99.90;;;;;;5075296;28;20739;-58
2021/10/03 00:55:21;;;;;;;1.20;0.80;;;17.40;99.90;;;;;;5075600;28;20453;-55
2021/10/03 00:57:51;;;;;;;1.40;0.90;;;17.30;99.90;;;;;;5074103;28;20431;-56
2021/10/03 01:00:24;;;;;;;1.00;0.70;;;17.30;99.90;;;;;;5075570;28;20431;-50
2021/10/03 01:02:55;;;;;;;1.10;0.70;;;17.20;99.90;;;;;;5075970;28;20838;-53
2021/10/03 01:05:25;;;;;;;1.20;0.90;;;17.20;99.90;;;;;;5075973;28;20916;-54
2021/10/03 01:07:55;;;;;;;1.10;0.80;;;17.30;99.90;;;;;;5072008;28;20427;-51
2021/10/03 01:10:25;;;;;;;1.20;0.80;;;17.30;99.90;;;;;;5073730;28;20488;-51
2021/10/03 01:12:56;;;;;;;1.30;0.90;;;17.30;99.90;;;;;;5071676;28;20431;-54
2021/10/03 01:15:31;;;;;;;1.47;0.80;;;17.30;99.90;;;;;;5072163;28;20462;-52
2021/10/03 01:18:00;;;;;;;1.40;0.80;;;17.30;99.90;;;;;;5073128;28;20493;-53
2021/10/03 01:20:28;;;;;;;1.10;0.80;;;17.40;99.90;;;;;;5072189;28;20419;-53
2021/10/03 01:22:57;;;;;;;1.10;0.75;;;17.40;99.90;;;;;;5072472;28;20712;-57
2021/10/03 01:25:24;;;;;;;1.30;0.88;;;17.50;99.90;;;;;;5071035;28;20439;-56
2021/10/03 01:27:52;;;;;;;1.10;0.80;;;17.60;99.90;;;;;;5073350;28;20472;-55
2021/10/03 01:30:20;;;;;;;1.57;0.70;;;17.70;99.90;;;;;;5074703;28;20435;-54
2021/10/03 01:32:48;;;;;;;1.00;0.70;;;17.80;99.90;;;;;;5074021;28;20684;-56
2021/10/03 01:35:19;;;;;;;1.10;0.90;;;17.90;99.90;;;;;;5072010;28;20432;-56
2021/10/03 01:37:49;;;;;;;0.90;0.75;;;17.90;99.90;;;;;;5071458;28;20424;-55
2021/10/03 01:40:20;;;;;;;1.00;0.80;;;17.90;99.90;;;;;;5071712;28;20422;-53
2021/10/03 01:42:47;;;;;;;1.00;0.80;;;17.90;99.90;;;;;;5072189;28;20507;-55
2021/10/03 01:45:18;;;;;;;1.13;0.80;;;17.90;99.90;;;;;;5072359;28;20477;-55
2021/10/03 01:48:08;;;;;;;1.65;0.80;;;17.80;99.90;;;;;;5072981;28;20442;-53
2021/10/03 01:50:43;;;;;;;1.10;0.70;;;17.70;99.90;;;;;;5073167;28;20415;-52
2021/10/03 01:53:13;;;;;;;1.10;0.70;;;17.70;99.90;;;;;;5073467;28;20510;-53
2021/10/03 01:55:43;;;;;;;1.50;0.70;;;17.60;99.90;;;;;;5072389;28;20408;-54
2021/10/03 01:58:13;;;;;;;1.30;0.70;;;17.60;99.90;;;;;;5071099;28;20501;-52
2021/10/03 02:00:46;;;;;;;0.90;0.70;;;17.60;99.90;;;;;;5070849;28;20431;-54
2021/10/03 02:03:14;;;;;;;1.13;0.75;;;17.60;99.90;;;;;;5070894;28;20419;-55
2021/10/03 02:05:43;;;;;;;1.00;0.80;;;17.70;99.90;;;;;;5070643;28;20432;-54
2021/10/03 02:08:12;;;;;;;1.02;0.75;;;17.90;99.90;;;;;;5070516;28;20427;-54
2021/10/03 02:10:42;;;;;;;1.10;0.70;;;17.90;99.90;;;;;;5076091;28;20420;-55
2021/10/03 02:13:10;;;;;;;1.10;0.80;;;17.90;99.90;;;;;;5078452;28;20869;-55
2021/10/03 02:15:43;;;;;;;1.50;0.77;;;17.90;99.90;;;;;;5079070;28;20888;-56
2021/10/03 02:18:12;;;;;;;1.10;0.80;;;17.80;99.90;;;;;;5078375;28;20473;-56
2021/10/03 02:20:41;;;;;;;1.30;0.80;;;17.90;99.90;;;;;;5078755;28;20426;-51
2021/10/03 02:23:10;;;;;;;0.90;0.70;;;17.90;99.90;;;;;;5078302;28;20419;-51
2021/10/03 02:25:43;;;;;;;0.90;0.70;;;17.80;99.90;;;;;;5076815;28;20427;-55
2021/10/03 02:28:13;;;;;;;1.15;0.80;;;17.60;99.90;;;;;;5078430;28;20407;-54
2021/10/03 02:30:41;;;;;;;1.30;0.80;;;17.50;99.90;;;;;;5077453;28;20913;-56
2021/10/03 02:33:08;;;;;;;2.00;0.80;;;17.60;99.90;;;;;;5078302;28;20415;-53
2021/10/03 02:35:38;;;;;;;1.00;0.70;;;17.60;99.90;;;;;;5076896;28;20412;-51
2021/10/03 02:38:06;;;;;;;1.17;0.80;;;17.50;99.90;;;;;;5075964;28;20712;-55
2021/10/03 02:40:33;;;;;;;1.40;0.90;;;17.40;99.90;;;;;;5075619;28;20850;-55
2021/10/03 02:43:05;;;;;;;1.48;0.80;;;17.30;99.90;;;;;;5075695;28;20473;-56
2021/10/03 02:45:36;;;;;;;1.40;0.80;;;17.30;99.90;;;;;;5076344;28;20530;-56
2021/10/03 02:48:04;;;;;;;1.10;0.80;;;17.30;99.90;;;;;;5077156;28;20492;-55
2021/10/03 02:50:31;;;;;;;1.80;0.73;;;17.30;99.90;;;;;;5076995;28;20484;-55
2021/10/03 02:52:58;;;;;;;1.08;0.80;;;17.30;99.90;;;;;;5073964;28;20428;-51
2021/10/03 02:55:26;;;;;;;1.00;0.80;;;17.30;99.90;;;;;;5073079;28;20408;-56
2021/10/03 02:57:53;;;;;;;0.93;0.70;;;17.40;99.90;;;;;;5074422;28;20502;-53
2021/10/03 03:00:21;;;;;;;1.40;0.70;;;17.40;99.90;;;;;;5075040;28;20835;-54
2021/10/03 03:02:50;;;;;;;1.05;0.70;;;17.40;99.90;;;;;;5074477;28;20426;-50
2021/10/03 03:05:17;;;;;;;0.90;0.70;;;17.40;99.90;;;;;;5073952;28;20435;-50
2021/10/03 03:07:45;;;;;;;1.10;0.70;;;17.30;99.90;;;;;;5075957;28;20423;-52
2021/10/03 03:10:13;;;;;;;1.00;0.70;;;17.40;99.90;;;;;;5076447;28;20793;-53
2021/10/03 03:12:40;;;;;;;1.08;0.80;;;17.30;99.90;;;;;;5077315;28;20419;-54
2021/10/03 03:15:09;;;;;;;1.20;0.70;;;17.30;99.90;;;;;;5077693;28;20428;-54
2021/10/03 03:17:37;;;;;;;1.20;0.80;;;17.30;99.90;;;;;;5077552;28;20415;-55
2021/10/03 03:20:10;;;;;;;1.30;0.70;;;17.30;99.90;;;;;;5076119;28;20423;-55
2021/10/03 03:22:39;;;;;;;1.00;0.70;;;17.20;99.90;;;;;;5077339;28;20426;-55
2021/10/03 03:25:12;;;;;;;1.00;0.70;;;17.30;99.90;;;;;;5076365;28;20424;-54
2021/10/03 03:27:40;;;;;;;0.90;0.70;;;17.40;99.90;;;;;;5077772;28;20757;-56
2021/10/03 03:30:09;;;;;;;1.13;0.70;;;17.50;99.90;;;;;;5077688;28;20427;-53
2021/10/03 03:32:37;;;;;;;0.80;0.60;;;17.70;99.90;;;;;;5077788;28;20881;-54
2021/10/03 03:35:08;;;;;;;1.10;0.60;;;17.70;99.90;;;;;;5077232;28;20496;-55
2021/10/03 03:37:36;;;;;;;1.10;0.70;;;17.70;99.90;;;;;;5077206;28;20778;-55
2021/10/03 03:40:07;;;;;;;1.65;0.80;;;17.60;99.90;;;;;;5077380;28;20427;-56
2021/10/03 03:42:34;;;;;;;1.50;0.80;;;17.70;99.90;;;;;;5077163;28;20420;-53
2021/10/03 03:45:02;;;;;;;1.30;0.80;;;17.90;99.90;;;;;;5077417;28;20424;-55
2021/10/03 03:47:29;;;;;;;1.20;0.80;;;17.90;99.90;;;;;;5076517;28;20427;-53
2021/10/03 03:49:57;;;;;;;1.00;0.80;;;17.90;99.90;;;;;;5077163;28;20428;-51
2021/10/03 03:52:26;;;;;;;1.27;0.70;;;17.90;99.90;;;;;;5076433;28;20431;-51
2021/10/03 03:54:54;;;;;;;1.00;0.70;;;18.00;99.90;;;;;;5075734;28;20435;-57
2021/10/03 03:57:21;;;;;;;0.90;0.70;;;18.00;99.90;;;;;;5075894;28;20418;-52
2021/10/03 03:59:49;;;;;;;0.90;0.60;;;17.90;99.90;;;;;;5075225;28;20924;-52
2021/10/03 04:02:17;;;;;;;0.90;0.70;;;17.80;99.90;;;;;;5073730;28;20431;-53
2021/10/03 04:04:44;;;;;;;1.40;0.70;;;17.80;99.90;;;;;;5073995;28;20432;-54
2021/10/03 04:07:12;;;;;;;1.10;0.70;;;17.70;99.90;;;;;;5074601;28;20526;-55
2021/10/03 04:09:41;;;;;;;1.23;0.60;;;17.70;99.90;;;;;;5075163;28;20427;-53
2021/10/03 04:12:08;;;;;;;1.20;0.70;;;17.70;99.90;;;;;;5076097;28;20423;-55
2021/10/03 04:14:38;;;;;;;1.45;0.80;;;17.80;99.90;;;;;;5076551;28;20427;-54
2021/10/03 04:17:06;;;;;;;1.13;0.70;;;17.80;99.90;;;;;;5076401;28;20423;-55
2021/10/03 04:19:33;;;;;;;1.40;0.70;;;17.80;99.90;;;;;;5076291;28;20522;-55
2021/10/03 04:22:01;;;;;;;1.40;0.70;;;17.70;99.90;;;;;;5076437;28;20707;-55
2021/10/03 04:24:28;;;;;;;1.00;0.70;;;17.80;99.90;;;;;;5073532;28;20488;-55
2021/10/03 04:26:57;;;;;;;1.13;0.70;;;17.80;99.90;;;;;;5074454;28;20439;-53
2021/10/03 04:29:25;;;;;;;0.82;0.60;;;17.80;99.90;;;;;;5074650;28;20718;-53
2021/10/03 04:31:52;;;;;;;1.00;0.65;;;17.60;99.90;;;;;;5075548;28;20471;-54
2021/10/03 04:34:20;;;;;;;0.90;0.60;;;17.70;99.90;;;;;;5075283;28;20428;-51
2021/10/03 04:36:47;;;;;;;2.30;0.70;;;17.60;99.90;;;;;;5075749;28;20420;-53
2021/10/03 04:39:15;;;;;;;0.80;0.60;;;17.50;99.90;;;;;;5075977;28;20745;-55
2021/10/03 04:41:42;;;;;;;0.90;0.60;;;17.50;99.90;;;;;;5075831;28;20478;-50
2021/10/03 04:44:11;;;;;;;0.85;0.60;;;17.50;99.90;;;;;;5075677;28;20480;-54
2021/10/03 04:46:39;;;;;;;0.80;0.60;;;17.50;99.90;;;;;;5073433;28;20435;-54
2021/10/03 04:49:06;;;;;;;1.27;0.60;;;17.60;99.90;;;;;;5073454;28;20915;-55
2021/10/03 04:51:33;;;;;;;1.00;0.70;;;17.80;99.90;;;;;;5072678;28;20547;-53
2021/10/03 04:54:01;;;;;;;1.10;0.60;;;17.70;99.90;;;;;;5073510;28;20419;-55
2021/10/03 04:56:29;;;;;;;0.80;0.50;;;17.70;99.90;;;;;;5074046;28;20877;-54
2021/10/03 04:58:56;;;;;;;1.50;0.60;;;17.70;99.90;;;;;;5074123;28;20423;-54
2021/10/03 05:01:25;;;;;;;2.40;0.60;;;17.80;99.90;;;;;;5075336;28;20428;-54
2021/10/03 05:03:52;;;;;;;1.00;0.60;;;17.90;99.90;;;;;;5075322;28;20462;-55
2021/10/03 05:06:20;;;;;;;0.93;0.60;;;17.80;99.90;;;;;;5076026;28;20439;-54
2021/10/03 05:08:47;;;;;;;0.85;0.52;;;17.90;99.90;;;;;;5075338;28;20489;-56
2021/10/03 05:11:14;;;;;;;1.30;0.60;;;17.90;99.90;;;;;;5074242;28;20427;-53
2021/10/03 05:13:42;;;;;;;0.90;0.70;;;17.90;99.90;;;;;;5073839;28;20432;-51
2021/10/03 05:16:09;;;;;;;0.90;0.60;;;17.80;99.90;;;;;;5074512;28;20457;-54
2021/10/03 05:18:38;;;;;;;1.00;0.60;;;17.70;99.90;;;;;;5073650;28;20786;-56
2021/10/03 05:21:06;;;;;;;0.88;0.60;;;17.80;99.90;;;;;;5073777;28;20416;-55
2021/10/03 05:23:34;;;;;;;1.10;0.70;;;18.00;99.90;;;;;;5073978;28;20480;-55
2021/10/03 05:26:01;;;;;;;1.00;0.70;;;18.00;99.90;;;;;;5072709;28;20724;-55
2021/10/03 05:28:29;;;;;;;1.00;0.60;;;17.90;99.90;;;;;;5075401;28;20824;-57
2021/10/03 05:30:56;;;;;;;0.90;0.60;;;17.90;99.90;;;;;;5075175;28;20420;-56
2021/10/03 05:33:24;;;;;;;1.00;0.60;;;18.10;99.90;;;;;;5075041;28;20778;-57
2021/10/03 05:35:52;;;;;;;0.98;0.60;;;18.10;99.90;;;;;;5075477;28;20419;-58
2021/10/03 05:38:20;;;;;;;0.80;0.60;;;18.00;99.90;;;;;;5075058;28;20485;-54
2021/10/03 05:40:47;;;;;;;1.40;0.60;;;18.00;99.90;;;;;;5074668;28;20431;-56
2021/10/03 05:43:14;;;;;;;0.90;0.60;;;18.00;99.90;;;;;;5072725;28;20851;-54
2021/10/03 05:45:42;;;;;;;0.98;0.60;;;17.90;99.90;;;;;;5074125;28;20428;-56
2021/10/03 05:48:09;;;;;;;0.80;0.60;;;17.90;99.90;;;;;;5074399;28;20427;-56
2021/10/03 05:50:37;;;;;;;0.90;0.60;;;17.90;99.90;;;;;;5073805;28;20477;-56
2021/10/03 05:53:07;;;;;;;1.00;0.60;;;17.80;99.90;;;;;;5073628;28;20462;-55
2021/10/03 05:55:34;;;;;;;0.90;0.60;;;17.80;99.90;;;;;;5074575;28;20473;-56
2021/10/03 05:58:02;;;;;;;1.10;0.60;;;17.90;99.90;;;;;;5074682;28;20473;-56
2021/10/03 06:00:29;;;;;;;1.10;0.60;;;17.70;99.90;;;;;;5074818;28;20428;-56
2021/10/03 06:02:57;;;;;;;0.90;0.60;;;17.70;99.90;;;;;;5074364;28;20419;-53
2021/10/03 06:05:24;;;;;;;1.50;0.60;;;17.70;99.90;;;;;;5074778;28;20758;-53
2021/10/03 06:07:52;;;;;;;1.90;0.60;;;17.90;99.90;;;;;;5074458;28;20439;-51
2021/10/03 06:10:21;;;;;;;1.00;0.60;;;18.00;99.90;;;;;;5073945;28;20427;-52
2021/10/03 06:12:48;;;;;;;0.80;0.50;;;18.00;99.90;;;;;;5073758;28;20415;-54
2021/10/03 06:15:15;;;;;;;0.80;0.60;;;18.00;99.90;;;;;;5074261;28;20479;-56
2021/10/03 06:17:44;;;;;;;1.10;0.60;;;18.10;99.90;;;;;;5073248;28;20747;-56
2021/10/03 06:20:13;;;;;;;0.80;0.60;;;18.10;99.90;;;;;;5070350;28;20539;-56
2021/10/03 06:22:45;;;;;;;0.90;0.60;;;18.30;99.90;;;;;;5071853;28;20434;-56
2021/10/03 06:25:12;;;;;;;1.00;0.60;;;18.40;99.90;;;;;;5072105;28;20795;-53
2021/10/03 06:27:41;;;;;;;0.90;0.60;;;18.50;99.90;;;;;;5074441;28;20431;-54
2021/10/03 06:30:10;;;;;;;1.10;0.57;;;18.50;99.90;;;;;;5073945;28;20922;-56
2021/10/03 06:32:39;;;;;;;1.00;0.60;;;18.40;99.90;;;;;;5070519;28;20446;-56
2021/10/03 06:35:08;;;;;;;0.80;0.57;;;18.40;99.90;;;;;;5071067;28;20427;-56
2021/10/03 06:37:36;;;;;;;0.88;0.60;;;18.50;99.90;;;;;;5071328;28;20408;-56
2021/10/03 06:40:06;;;;;;;0.80;0.50;;;18.40;99.90;;;;;;5069655;28;20932;-57
2021/10/03 06:42:34;;;;;;;1.00;0.70;;;18.50;99.90;;;;;;5071100;28;20416;-57
2021/10/03 06:45:03;;;;;;;0.75;0.60;;;18.70;99.90;;;;;;5071541;28;20431;-52
2021/10/03 06:47:31;;;;;;;0.90;0.60;;;18.80;99.90;;;;;;5072656;28;20726;-55
2021/10/03 06:49:58;;;;;;;0.90;0.60;;;18.90;99.90;;;;;;5074552;28;20685;-54
2021/10/03 06:52:26;;;;;;;1.30;0.60;;;19.00;99.90;;;;;;5073393;28;20452;-54
2021/10/03 06:54:53;;;;;;;1.30;0.60;;;19.10;99.90;;;;;;5075552;28;20431;-53
2021/10/03 06:57:21;;;;;;;0.80;0.60;;;19.10;99.90;;;;;;5076859;28;20423;-53
2021/10/03 06:59:48;;;;;;;0.80;0.50;;;19.20;99.90;;;;;;5077117;28;20431;-57
2021/10/03 07:02:21;;;;;;;0.80;0.50;;;19.20;99.90;;;;;;5076311;28;20449;-55
2021/10/03 07:04:49;;;;;;;0.80;0.50;;;19.20;99.90;;;;;;5077304;28;20845;-57
2021/10/03 07:07:16;;;;;;;0.90;0.60;;;19.30;99.90;;;;;;5077108;28;20438;-56
2021/10/03 07:09:43;;;;;;;0.80;0.50;;;19.20;99.90;;;;;;5077037;28;20434;-56
2021/10/03 07:12:11;;;;;;;0.70;0.50;;;19.10;99.90;;;;;;5075997;28;20415;-54
2021/10/03 07:14:39;;;;;;;1.50;0.60;;;18.90;99.90;;;;;;5075172;28;20446;-56
2021/10/03 07:17:06;;;;;;;0.70;0.50;;;18.90;99.90;;;;;;5075082;28;20497;-57
2021/10/03 07:19:35;;;;;;;0.85;0.60;;;18.80;99.90;;;;;;5074666;28;20724;-56
2021/10/03 07:22:03;;;;;;;0.93;0.60;;;18.90;99.90;;;;;;5076175;28;20420;-55
2021/10/03 07:24:31;;;;;;;0.80;0.60;;;18.90;99.90;;;;;;5072152;28;20782;-55
2021/10/03 07:26:58;;;;;;;0.80;0.60;;;18.90;99.90;;;;;;5074331;28;20428;-57
2021/10/03 07:29:26;;;;;;;0.80;0.50;;;18.90;99.90;;;;;;5074642;28;20435;-54
2021/10/03 07:31:53;;;;;;;0.60;0.40;;;18.90;99.90;;;;;;5074794;28;20424;-51
2021/10/03 07:34:21;;;;;;;0.80;0.60;;;18.90;99.90;;;;;;5072924;28;20485;-55
2021/10/03 07:36:50;;;;;;;0.88;0.60;;;19.10;99.90;;;;;;5073276;28;20800;-53
2021/10/03 07:39:17;;;;;;;0.80;0.50;;;19.20;99.90;;;;;;5074363;28;20477;-54
2021/10/03 07:41:58;;;;;;;0.80;0.50;;;19.20;99.90;;;;;;5074943;28;20428;-55
2021/10/03 07:44:25;;;;;;;1.00;0.50;;;19.30;99.90;;;;;;5056734;28;20437;-54
2021/10/03 07:46:52;;;;;;;1.05;0.55;;;19.50;99.90;;;;;;5056578;28;20437;-53
2021/10/03 07:49:20;;;;;;;0.70;0.50;;;19.70;99.90;;;;;;5055883;28;20432;-53
2021/10/03 07:51:49;;;;;;;0.88;0.50;;;19.70;99.90;;;;;;5074022;28;20463;-56
2021/10/03 07:54:16;;;;;;;1.10;0.50;;;19.70;99.90;;;;;;5073614;28;20873;-53
2021/10/03 07:56:44;;;;;;;0.80;0.60;;;19.60;99.90;;;;;;5073122;28;20420;-52
2021/10/03 07:59:12;;;;;;;0.75;0.50;;;19.70;99.90;;;;;;5072381;28;20431;-56
2021/10/03 08:01:40;;;;;;;0.80;0.50;;;19.80;99.90;;;;;;5069769;28;20417;-55
2021/10/03 08:04:07;;;;;;;0.80;0.50;;;19.90;99.90;;;;;;5071731;28;20423;-56
2021/10/03 08:06:34;;;;;;;0.87;0.50;;;19.90;99.90;;;;;;5072832;28;20858;-52
2021/10/03 08:09:04;;;;;;;0.90;0.60;;;19.80;99.90;;;;;;5073083;28;20431;-55
2021/10/03 08:11:32;;;;;;;0.68;0.50;;;19.70;99.90;;;;;;5064443;28;20421;-54
2021/10/03 08:13:59;;;;;;;0.80;0.50;;;19.90;99.90;;;;;;5070161;28;20770;-53
2021/10/03 08:16:27;;;;;;;0.70;0.50;;;20.00;99.90;;;;;;5072983;28;20420;-54
2021/10/03 08:18:58;;;;;;;0.80;0.60;;;19.90;99.90;;;;;;5072182;28;20723;-56
2021/10/03 08:21:25;;;;;;;0.70;0.50;;;19.90;99.90;;;;;;5070805;28;20426;-55
2021/10/03 08:23:53;;;;;;;0.80;0.50;;;20.00;99.90;;;;;;5060273;28;20506;-56
2021/10/03 08:26:23;;;;;;;0.63;0.50;;;20.10;99.90;;;;;;5052597;28;20413;-56
2021/10/03 08:28:51;;;;;;;0.70;0.50;;;20.20;99.90;;;;;;5066369;28;20435;-56
2021/10/03 08:31:18;;;;;;;0.80;0.50;;;20.10;99.90;;;;;;5072646;28;20790;-55
2021/10/03 08:33:46;;;;;;;0.70;0.50;;;20.20;99.90;;;;;;5070811;28;20431;-55
2021/10/03 08:36:20;;;;;;;0.70;0.50;;;20.20;99.90;;;;;;5071124;28;20777;-54
2021/10/03 08:38:48;;;;;;;1.40;0.50;;;20.20;99.90;;;;;;5069113;28;20427;-54
2021/10/03 08:41:17;;;;;;;0.77;0.50;;;20.20;99.90;;;;;;5070866;28;20871;-53
2021/10/03 08:43:46;;;;;;;1.10;0.50;;;20.20;99.90;;;;;;5071553;28;20427;-55
2021/10/03 08:46:15;;;;;;;0.83;0.50;;;20.20;99.90;;;;;;5072027;28;20425;-55
2021/10/03 08:48:43;;;;;;;0.90;0.50;;;20.20;99.90;;;;;;5073019;28;20854;-54
2021/10/03 08:51:11;;;;;;;0.80;0.50;;;20.10;99.90;;;;;;5070616;28;20432;-54
2021/10/03 08:53:43;;;;;;;0.70;0.50;;;20.10;99.90;;;;;;5073749;28;20449;-56
2021/10/03 08:56:18;;;;;;;0.70;0.50;;;20.20;99.90;;;;;;5073299;28;20463;-55
2021/10/03 08:58:46;;;;;;;0.80;0.60;;;20.30;99.90;;;;;;5053330;28;20437;-55
2021/10/03 09:01:15;;;;;;;0.70;0.50;;;20.40;99.90;;;;;;5063404;28;20455;-52
2021/10/03 09:03:44;;;;;;;0.80;0.50;;;20.40;99.90;;;;;;5073654;28;20869;-53
2021/10/03 09:06:12;;;;;;;0.80;0.50;;;20.30;99.90;;;;;;5074021;28;20531;-55
2021/10/03 09:08:45;;;;;;;0.70;0.50;;;20.20;99.90;;;;;;5074512;28;20470;-55
2021/10/03 09:11:19;;;;;;;0.80;0.50;;;20.30;99.90;;;;;;5074012;28;20835;-56
2021/10/03 09:13:55;;;;;;;1.30;0.57;;;20.40;99.90;;;;;;5073103;28;20859;-55
2021/10/03 09:16:33;;;;;;;0.80;0.50;;;20.40;99.90;;;;;;5072763;28;20481;-54
2021/10/03 09:19:02;;;;;;;0.70;0.50;;;20.40;99.90;;;;;;5071457;28;20486;-53
2021/10/03 09:21:38;;;;;;;0.73;0.50;;;20.30;99.90;;;;;;5073345;28;20481;-54
2021/10/03 09:24:15;;;;;;;1.40;0.60;;;20.20;99.90;;;;;;5071224;28;20704;-55
2021/10/03 09:27:03;;;;;;;0.80;0.50;;;20.20;99.90;;;;;;5073616;28;20418;-53
2021/10/03 09:29:38;;;;;;;1.80;0.50;;;20.30;99.90;;;;;;5073132;28;20445;-54
2021/10/03 09:35:02;;;;;;;1.13;0.55;;;20.30;99.90;;;;;;5072670;28;20420;-52
2021/10/03 09:37:32;;;;;;;2.70;0.60;;;20.20;99.90;;;;;;5071409;28;20424;-57
2021/10/03 09:40:13;;;;;;;1.40;0.60;;;20.30;99.90;;;;;;5072971;28;20431;-55
2021/10/03 09:42:42;;;;;;;0.80;0.60;;;20.30;99.90;;;;;;5030918;28;20423;-55
2021/10/03 09:45:21;;;;;;;0.80;0.50;;;20.50;99.90;;;;;;5025007;28;20745;-56
2021/10/03 09:48:00;;;;;;;0.82;0.60;;;20.60;99.90;;;;;;5018550;28;20444;-53
2021/10/03 09:50:40;;;;;;;0.85;0.60;;;20.70;99.90;;;;;;5030068;28;20430;-56
2021/10/03 09:53:13;;;;;;;0.70;0.50;;;20.60;99.90;;;;;;5025921;28;20794;-56
2021/10/03 09:55:49;;;;;;;0.80;0.50;;;20.60;99.90;;;;;;5027861;28;20434;-56
2021/10/03 09:58:19;;;;;;;0.90;0.60;;;20.70;99.90;;;;;;5028392;28;20721;-54
2021/10/03 10:00:49;;;;;;;0.70;0.50;;;20.80;99.90;;;;;;5031921;28;20845;-55
2021/10/03 10:03:17;;;;;;;0.80;0.57;;;20.80;99.90;;;;;;5030465;28;20775;-53
2021/10/03 10:05:45;;;;;;;1.20;0.60;;;20.90;99.90;;;;;;5029759;28;20427;-55
2021/10/03 10:08:13;;;;;;;1.08;0.60;;;20.90;99.90;;;;;;5029384;28;20540;-55
2021/10/03 10:10:45;;;;;;;0.93;0.70;;;20.90;99.90;;;;;;5029412;28;20941;-57
2021/10/03 10:13:16;;;;;;;1.60;0.60;;;20.80;99.90;;;;;;5030022;28;20522;-55
2021/10/03 10:15:55;;;;;;;1.40;0.60;;;20.80;99.90;;;;;;5024249;28;20867;-55
2021/10/03 10:18:39;;;;;;;0.90;0.60;;;20.80;99.90;;;;;;5031543;28;20906;-54
2021/10/03 10:21:25;;;;;;;0.98;0.60;;;21.00;99.90;;;;;;5023883;28;20434;-53
2021/10/03 10:23:59;;;;;;;0.80;0.60;;;21.10;99.90;;;;;;5031363;28;20426;-54
2021/10/03 10:26:48;;;;;;;1.00;0.50;;;21.20;99.90;;;;;;5032880;28;20426;-53
2021/10/03 10:29:51;;;;;;;1.40;0.60;;;21.30;99.90;;;;;;5025751;28;20446;-51
2021/10/03 10:32:22;;;;;;;0.80;0.55;;;21.40;99.90;;;;;;5033264;28;20766;-54
2021/10/03 10:35:34;;;;;;;1.10;0.60;;;21.40;99.90;;;;;;5034768;28;20434;-56
2021/10/03 10:38:23;;;;;;;0.90;0.60;;;21.40;99.90;;;;;;5033622;28;20426;-49
2021/10/03 10:40:56;;;;;;;0.70;0.50;;;21.50;99.90;;;;;;5041607;28;20449;-54
2021/10/03 10:43:49;;;;;;;1.30;0.50;;;21.50;99.90;;;;;;5072774;28;20492;-54
2021/10/03 10:46:54;;;;;;;0.80;0.60;;;21.60;99.90;;;;;;5062151;28;21005;-52
2021/10/03 10:49:40;;;;;;;1.43;0.60;;;21.50;99.90;;;;;;5061092;28;20517;-53
2021/10/03 10:52:47;;;;;;;0.90;0.50;;;21.50;99.90;;;;;;5073744;28;20423;-54
2021/10/03 10:55:42;;;;;;;2.20;0.50;;;21.50;99.90;;;;;;5053568;28;20932;-53
2021/10/03 10:58:18;;;;;;;0.90;0.60;;;21.50;99.90;;;;;;5068638;28;20419;-55
2021/10/03 11:01:20;;;;;;;1.20;0.60;;;21.60;99.90;;;;;;5071318;28;20423;-56
2021/10/03 11:04:24;;;;;;;1.60;0.60;;;21.70;99.90;;;;;;5075159;28;20427;-57
2021/10/03 11:06:58;;;;;;;1.00;0.60;;;21.70;99.90;;;;;;5060998;28;20848;-53
2021/10/03 11:10:01;;;;;;;0.80;0.60;;;21.70;99.90;;;;;;5057433;28;20753;-52
2021/10/03 11:12:36;;;;;;;1.02;0.60;;;21.70;99.90;;;;;;5072405;28;20426;-53
2021/10/03 11:18:25;;;;;;;0.98;0.50;;;21.60;99.90;;;;;;5045735;28;20409;-54
2021/10/03 11:20:57;;;;;;;0.80;0.50;;;21.50;99.90;;;;;;5060383;28;20831;-56
2021/10/03 11:23:26;;;;;;;0.75;0.50;;;21.60;99.90;;;;;;5074261;28;20426;-54
2021/10/03 11:26:31;;;;;;;0.80;0.50;;;21.60;99.90;;;;;;5066692;28;21057;-54
2021/10/03 11:29:03;;;;;;;1.10;0.50;;;21.60;99.90;;;;;;5070005;28;20434;-55
2021/10/03 11:31:55;;;;;;;1.00;0.60;;;21.60;99.90;;;;;;5053000;28;20811;-56
2021/10/03 11:34:35;;;;;;;0.80;0.60;;;21.50;99.90;;;;;;5053836;28;20753;-56
2021/10/03 11:37:07;;;;;;;1.70;0.60;;;21.60;99.90;;;;;;5059195;28;20482;-58
2021/10/03 11:39:46;;;;;;;0.73;0.50;;;21.70;99.90;;;;;;5051717;28;20489;-55
2021/10/03 11:42:21;;;;;;;1.00;0.70;;;21.70;99.90;;;;;;5049753;28;20744;-55
2021/10/03 11:45:02;;;;;;;1.10;0.60;;;21.80;99.90;;;;;;5062262;28;20648;-55
2021/10/03 11:47:42;;;;;;;0.90;0.60;;;21.80;99.90;;;;;;5058235;28;20430;-54
2021/10/03 11:50:42;;;;;;;0.85;0.60;;;21.70;99.90;;;;;;5061657;28;20605;-55
2021/10/03 11:53:16;;;;;;;1.17;0.60;;;21.60;99.90;;;;;;5051466;28;20433;-55
2021/10/03 11:55:52;;;;;;;1.10;0.80;;;21.60;99.90;;;;;;5052240;28;20557;-56
2021/10/03 11:58:39;;;;;;;2.83;0.70;;;21.60;99.90;;;;;;5048597;28;20470;-56
2021/10/03 12:01:32;;;;;;;2.08;0.50;;;21.60;99.90;;;;;;5076086;28;20790;-56
2021/10/03 12:04:08;;;;;;;0.80;0.60;;;21.70;99.90;;;;;;5074834;28;20428;-57
2021/10/03 12:06:53;;;;;;;0.80;0.60;;;21.60;99.90;;;;;;5068378;28;20819;-54
2021/10/03 12:09:27;;;;;;;0.80;0.57;;;21.70;99.90;;;;;;5075558;28;20475;-54
2021/10/03 12:12:15;;;;;;;1.30;0.65;;;21.90;99.90;;;;;;5073735;28;20506;-55
2021/10/03 12:14:46;;;;;;;0.80;0.60;;;22.10;99.90;;;;;;5054015;28;20805;-55
2021/10/03 12:17:15;;;;;;;0.98;0.60;;;22.20;99.90;;;;;;5054884;28;20480;-55
2021/10/03 12:20:04;;;;;;;0.80;0.60;;;22.30;99.90;;;;;;5054658;28;20417;-56
2021/10/03 12:22:32;;;;;;;1.20;0.70;;;22.30;99.90;;;;;;5053674;28;20418;-55
2021/10/03 12:25:06;;;;;;;0.90;0.60;;;22.30;99.90;;;;;;5061850;28;20502;-56
2021/10/03 12:27:41;;;;;;;0.90;0.60;;;22.40;99.90;;;;;;5054339;28;20721;-51
2021/10/03 12:30:26;;;;;;;0.90;0.65;;;22.50;99.90;;;;;;5064713;28;20749;-56
2021/10/03 12:33:29;;;;;;;1.00;0.70;;;22.60;99.90;;;;;;5068434;28;20519;-56
2021/10/03 12:36:02;;;;;;;1.20;0.60;;;22.80;99.90;;;;;;5047427;28;20522;-57
2021/10/03 12:38:37;;;;;;;0.90;0.60;;;22.90;99.90;;;;;;5067622;28;20963;-54
2021/10/03 12:41:20;;;;;;;1.00;0.60;;;22.80;99.90;;;;;;5070110;28;20472;-56
2021/10/03 12:43:58;;;;;;;0.80;0.60;;;22.80;99.90;;;;;;5065151;28;20840;-52
2021/10/03 12:46:31;;;;;;;1.30;0.68;;;22.80;99.90;;;;;;5062076;28;20431;-54
2021/10/03 12:49:01;;;;;;;1.10;0.70;;;22.80;99.90;;;;;;5053150;28;20543;-56
2021/10/03 12:51:30;;;;;;;1.00;0.60;;;22.70;99.90;;;;;;5052030;28;20428;-55
2021/10/03 12:54:05;;;;;;;1.00;0.70;;;22.80;99.90;;;;;;5056729;28;20450;-54
2021/10/03 12:56:35;;;;;;;0.80;0.60;;;23.00;99.90;;;;;;5068338;28;20860;-55
2021/10/03 12:59:04;;;;;;;0.98;0.70;;;23.10;99.90;;;;;;5069824;28;20748;-56
2021/10/03 13:01:34;;;;;;;0.88;0.60;;;23.30;99.90;;;;;;5069057;28;20436;-54
2021/10/03 13:04:02;;;;;;;0.80;0.60;;;23.10;99.90;;;;;;5071357;28;20836;-55
2021/10/03 13:06:30;;;;;;;1.92;0.80;;;23.10;99.90;;;;;;5072697;28;20438;-55
2021/10/03 13:09:02;;;;;;;0.80;0.60;;;22.90;99.90;;;;;;5071060;28;20788;-53
2021/10/03 13:11:36;;;;;;;1.00;0.70;;;22.80;99.90;;;;;;5071420;28;20523;-60
2021/10/03 13:14:11;;;;;;;1.20;0.70;;;22.70;99.90;;;;;;5069894;28;20419;-52
2021/10/03 13:16:43;;;;;;;0.80;0.60;;;22.70;99.90;;;;;;5069611;28;20435;-55
2021/10/03 13:19:12;;;;;;;0.70;0.50;;;22.60;99.90;;;;;;5073153;28;20810;-55
2021/10/03 13:21:44;;;;;;;1.30;0.70;;;22.50;99.90;;;;;;5072174;28;20579;-57